SBOSBO LUX / ELLX
Speedbird OnlineSpeedbird Online LUX / ELLX

Luxembourg-Findel International Airport
08:03 -3°C

Location Luxemburg, Luxembourg
Latitude: 49.6233333
Longitude: 6.2044444
Web Airport Website | Wikipedia
Altitude 376 Meter / 1234 Feet
Distance 478 KM / 297 Miles
from London.
Time Zone UTC +1 hours (Europe/Luxembourg)
Codes IATA: LUX
ICAO: ELLX
Currency £1 equals EUR 1.14
Runways
RunwayLength (m)Surface
064002ASPHALT
244002ASPHALT
Radio
TypeDescriptionFrequency
APPLuxembourg Approach120.885
ATISATIS134.755
TWRLuxembourg Tower118.105
VDFHomer118.105
Live ATC
METAR ELLX 290650Z VRB02KT 9999 BKN012 M03/M06 Q1028 NOSIG
TAF TAF ELLX 290500Z 2906/3012 VRB02KT 9999 BKN013 BECMG 2908/2910 SCT018 BECMG 2907/2909 24005KT TEMPO 3000/3008 3000 -SNRA BKN007 PROB30 3004/3008 -FZRA
Weather As Of 29 Jan 2023 08:01
Description Broken clouds
Wind 7 km/h from North-West (320°)
Cloud Cover 75%
Precipitation Rain: none, Snow: none
Sunrise 08:12
Sunset 17:24
Lounges The Lounge by Luxair, Terminal A
Rotations During the last 90 days there were
119 flights from LHR
120 flights to LHR



Support Speedbird Online

© 2017-2023 Speedbird Online